createdAt,value
2019-05-07T00:00:55.930Z,25.20
2019-05-07T00:03:24.334Z,26.10
2019-05-07T00:05:53.991Z,26.10
2019-05-07T00:08:23.010Z,25.70
2019-05-07T00:10:52.974Z,25.60
2019-05-07T00:13:22.703Z,25.40
2019-05-07T00:15:52.803Z,24.80
2019-05-07T00:18:23.003Z,24.90
2019-05-07T00:20:53.013Z,25.10
2019-05-07T00:23:23.163Z,24.80
2019-05-07T00:25:52.926Z,25.10
2019-05-07T00:28:22.991Z,25.10
2019-05-07T00:30:52.151Z,25.00
2019-05-07T00:33:22.676Z,25.20
2019-05-07T00:35:58.886Z,25.10
2019-05-07T00:38:29.010Z,25.30
2019-05-07T00:41:12.319Z,25.20
2019-05-07T00:43:42.878Z,25.20
2019-05-07T00:46:13.072Z,24.60
2019-05-07T00:48:42.289Z,24.50
2019-05-07T00:51:24.082Z,24.50
2019-05-07T00:53:52.608Z,24.30
2019-05-07T00:56:22.295Z,24.40
2019-05-07T00:58:52.765Z,24.70
2019-05-07T01:01:22.684Z,24.80
2019-05-07T01:03:53.290Z,25.20
2019-05-07T01:06:22.437Z,26.20
2019-05-07T01:08:52.527Z,26.10
2019-05-07T01:11:22.618Z,26.40
2019-05-07T01:13:52.043Z,26.10
2019-05-07T01:16:22.247Z,26.40
2019-05-07T01:18:50.786Z,26.00
2019-05-07T01:21:22.568Z,26.70
2019-05-07T01:23:52.280Z,26.20
2019-05-07T01:26:21.912Z,26.50
2019-05-07T01:28:59.590Z,27.30
2019-05-07T01:31:32.752Z,27.20
2019-05-07T01:34:08.263Z,26.70
2019-05-07T01:36:36.805Z,26.60
2019-05-07T01:39:06.048Z,27.00
2019-05-07T01:41:34.584Z,27.30
2019-05-07T01:44:03.136Z,27.60
2019-05-07T01:46:32.453Z,27.80
2019-05-07T01:49:03.024Z,27.50
2019-05-07T01:51:32.703Z,27.10
2019-05-07T01:54:02.222Z,26.60
2019-05-07T01:56:32.971Z,27.10
2019-05-07T01:59:02.449Z,27.00
2019-05-07T02:01:33.149Z,26.40
2019-05-07T02:04:15.283Z,25.90
2019-05-07T02:07:02.812Z,25.40
2019-05-07T02:09:34.048Z,25.10
2019-05-07T02:12:04.310Z,25.30
2019-05-07T02:14:33.108Z,25.90
2019-05-07T02:17:03.008Z,25.90
2019-05-07T02:19:32.965Z,26.00
2019-05-07T02:22:02.989Z,26.10
2019-05-07T02:24:33.644Z,26.10
2019-05-07T02:27:02.998Z,25.90
2019-05-07T02:29:32.437Z,25.60
2019-05-07T02:32:04.188Z,25.60
2019-05-07T02:34:33.926Z,25.80
2019-05-07T02:37:03.991Z,25.30
2019-05-07T02:39:39.037Z,25.40
2019-05-07T02:42:07.496Z,25.10
2019-05-07T02:44:37.544Z,25.70
2019-05-07T02:47:13.483Z,25.10
2019-05-07T02:49:44.050Z,25.70
2019-05-07T02:52:17.097Z,26.10
2019-05-07T02:54:59.079Z,26.90
2019-05-07T02:57:29.241Z,27.40
2019-05-07T02:59:57.619Z,27.20
2019-05-07T03:02:26.116Z,27.00
2019-05-07T03:04:54.652Z,26.60
2019-05-07T03:07:24.160Z,26.30
2019-05-07T03:09:53.807Z,26.00
2019-05-07T03:12:23.694Z,25.80
2019-05-07T03:14:53.722Z,25.60
2019-05-07T03:17:24.556Z,26.00
2019-05-07T03:19:54.139Z,26.40
2019-05-07T03:22:23.589Z,27.20
2019-05-07T03:24:53.625Z,27.00
2019-05-07T03:27:23.460Z,27.50
2019-05-07T03:29:56.823Z,27.90
2019-05-07T03:32:37.808Z,28.10
2019-05-07T03:35:20.694Z,28.30
2019-05-07T03:37:49.333Z,28.20
2019-05-07T03:40:17.747Z,28.30
2019-05-07T03:42:46.207Z,28.00
2019-05-07T03:45:33.465Z,28.30
2019-05-07T03:48:06.107Z,28.50
2019-05-07T03:50:34.570Z,28.30
2019-05-07T03:53:03.086Z,28.30
2019-05-07T03:55:33.213Z,28.10
2019-05-07T03:58:03.193Z,28.10
2019-05-07T04:00:33.214Z,28.10
2019-05-07T04:03:03.636Z,27.90
2019-05-07T04:05:34.261Z,27.90
2019-05-07T04:08:03.278Z,27.90
2019-05-07T04:10:33.821Z,28.10
2019-05-07T04:13:04.467Z,28.70
2019-05-07T04:15:33.114Z,28.60
2019-05-07T04:18:03.615Z,28.10
2019-05-07T04:20:33.406Z,27.80
2019-05-07T04:23:04.359Z,27.50
2019-05-07T04:25:39.212Z,27.30
2019-05-07T04:28:23.528Z,26.80
2019-05-07T04:30:53.246Z,26.30
2019-05-07T04:33:23.810Z,27.20
2019-05-07T04:35:57.323Z,27.60
2019-05-07T04:38:25.809Z,28.00
2019-05-07T04:40:54.309Z,28.20
2019-05-07T04:43:23.356Z,28.40
2019-05-07T04:45:53.715Z,28.20
2019-05-07T04:48:23.347Z,28.10
2019-05-07T04:50:54.322Z,28.00
2019-05-07T04:53:23.816Z,27.80
2019-05-07T04:55:53.561Z,27.20
2019-05-07T04:58:23.705Z,27.70
2019-05-07T05:00:53.735Z,28.70
2019-05-07T05:03:24.252Z,28.30
2019-05-07T05:05:53.475Z,29.30
2019-05-07T05:08:23.316Z,30.00
2019-05-07T05:10:53.821Z,30.10
2019-05-07T05:13:23.435Z,29.90
2019-05-07T05:15:52.805Z,30.30
2019-05-07T05:18:21.997Z,30.10
2019-05-07T05:21:04.142Z,31.60
2019-05-07T05:23:41.935Z,31.10
2019-05-07T05:26:12.490Z,31.70
2019-05-07T05:28:41.958Z,31.80
2019-05-07T05:31:12.519Z,30.20
2019-05-07T05:33:41.988Z,29.80
2019-05-07T05:36:12.649Z,29.30
2019-05-07T05:38:42.427Z,29.70
2019-05-07T05:41:12.345Z,29.70
2019-05-07T05:43:45.282Z,29.50
2019-05-07T05:46:15.398Z,29.60
2019-05-07T05:48:43.805Z,30.80
2019-05-07T05:51:16.902Z,30.80
2019-05-07T05:53:59.334Z,31.50
2019-05-07T05:56:32.583Z,31.90
2019-05-07T05:59:02.902Z,32.10
2019-05-07T06:01:51.917Z,32.90
2019-05-07T06:04:24.136Z,33.70
2019-05-07T06:07:08.846Z,32.90
2019-05-07T06:09:29.124Z,31.90
2019-05-07T06:12:17.369Z,31.50
2019-05-07T06:14:50.095Z,33.00
2019-05-07T06:17:37.106Z,33.10
2019-05-07T06:20:14.629Z,32.60
2019-05-07T06:22:52.812Z,34.20
2019-05-07T06:34:13.403Z,31.10
2019-05-07T06:36:42.491Z,29.20
2019-05-07T06:39:22.302Z,29.50
2019-05-07T06:42:04.308Z,31.40
2019-05-07T06:44:33.191Z,31.50
2019-05-07T06:49:45.370Z,31.10
2019-05-07T06:52:13.884Z,31.60
2019-05-07T06:54:42.821Z,31.70
2019-05-07T06:57:13.051Z,32.50
2019-05-07T06:59:43.333Z,33.80
2019-05-07T07:02:22.682Z,33.80
2019-05-07T07:04:52.832Z,32.40
2019-05-07T07:07:29.804Z,30.70
2019-05-07T07:09:57.849Z,31.10
2019-05-07T07:12:27.976Z,31.20
2019-05-07T07:14:58.062Z,30.00
2019-05-07T07:17:26.957Z,29.40
2019-05-07T07:19:55.460Z,29.60
2019-05-07T07:22:23.894Z,30.10
2019-05-07T07:24:53.151Z,29.40
2019-05-07T07:27:22.711Z,28.70
2019-05-07T07:30:08.411Z,29.00
2019-05-07T07:32:38.555Z,29.60
2019-05-07T07:35:09.696Z,30.00
2019-05-07T07:37:39.962Z,29.50
2019-05-07T07:40:25.674Z,29.00
2019-05-07T07:42:54.145Z,28.60
2019-05-07T07:45:23.135Z,28.00
2019-05-07T07:47:53.082Z,26.90
2019-05-07T07:50:22.526Z,26.60
2019-05-07T07:52:53.008Z,26.30
2019-05-07T07:55:22.850Z,25.50
2019-05-07T07:57:53.053Z,25.50
2019-05-07T08:00:38.754Z,25.00
2019-05-07T08:03:08.967Z,25.10
2019-05-07T08:05:37.535Z,25.30
2019-05-07T08:08:06.254Z,26.80
2019-05-07T08:10:34.804Z,26.50
2019-05-07T08:13:03.422Z,26.60
2019-05-07T08:15:33.085Z,25.60
2019-05-07T08:18:02.790Z,25.10
2019-05-07T08:20:32.663Z,25.30
2019-05-07T08:23:02.893Z,24.60
2019-05-07T08:25:52.251Z,24.50
2019-05-07T08:28:22.859Z,24.70
2019-05-07T08:30:52.594Z,26.40
2019-05-07T08:33:22.957Z,26.20
2019-05-07T08:36:08.963Z,26.90
2019-05-07T08:38:48.318Z,27.60
2019-05-07T08:41:17.110Z,29.30
2019-05-07T08:43:45.810Z,29.20
2019-05-07T08:46:32.891Z,28.30
2019-05-07T08:49:01.964Z,28.20
2019-05-07T08:51:32.594Z,27.00
2019-05-07T08:54:05.604Z,27.40
2019-05-07T08:56:35.832Z,27.40
2019-05-07T08:59:12.245Z,26.70
2019-05-07T09:01:43.264Z,26.20
2019-05-07T09:04:13.608Z,25.40
2019-05-07T09:06:43.062Z,25.10
2019-05-07T09:09:15.427Z,24.60
2019-05-07T09:11:44.085Z,23.60
2019-05-07T09:14:12.879Z,23.90
2019-05-07T09:16:42.636Z,22.40
2019-05-07T09:19:12.935Z,22.40
2019-05-07T09:21:42.832Z,22.00
2019-05-07T09:24:12.215Z,22.00
2019-05-07T09:26:48.725Z,21.80
2019-05-07T09:29:32.355Z,22.00
2019-05-07T09:32:15.437Z,22.10
2019-05-07T09:34:52.036Z,21.00
2019-05-07T09:37:26.539Z,21.60
2019-05-07T09:39:55.098Z,21.90
2019-05-07T09:42:23.654Z,23.80
2019-05-07T09:44:52.920Z,25.10
2019-05-07T09:47:22.035Z,25.00
2019-05-07T09:50:02.088Z,24.40
2019-05-07T09:52:22.698Z,24.40
2019-05-07T09:54:52.251Z,24.60
2019-05-07T09:57:29.988Z,25.20
2019-05-07T09:59:53.075Z,25.00
2019-05-07T10:02:22.739Z,24.10
2019-05-07T10:04:52.643Z,22.40
2019-05-07T10:07:22.271Z,24.00
2019-05-07T10:09:52.421Z,23.50
2019-05-07T10:12:34.700Z,24.00
2019-05-07T10:15:03.359Z,23.30
2019-05-07T10:17:33.503Z,22.90
2019-05-07T10:20:04.443Z,22.30
2019-05-07T10:22:32.502Z,23.30
2019-05-07T10:25:02.814Z,23.60
2019-05-07T10:27:32.426Z,23.50
2019-05-07T10:30:02.319Z,22.40
2019-05-07T10:32:32.191Z,21.70
2019-05-07T10:35:02.220Z,21.30
2019-05-07T10:37:32.050Z,21.50
2019-05-07T10:40:02.859Z,20.60
2019-05-07T10:42:32.396Z,20.90
2019-05-07T10:45:03.154Z,20.90
2019-05-07T10:47:48.646Z,21.20
2019-05-07T10:50:35.434Z,20.50
2019-05-07T10:52:55.026Z,20.40
2019-05-07T10:55:23.584Z,19.80
2019-05-07T10:57:52.901Z,19.30
2019-05-07T11:00:24.922Z,19.60
2019-05-07T11:02:53.500Z,20.10
2019-05-07T11:05:22.105Z,19.60
2019-05-07T11:07:50.983Z,20.00
2019-05-07T11:10:19.506Z,20.20
2019-05-07T11:12:48.081Z,20.10
2019-05-07T11:15:16.645Z,19.60
2019-05-07T11:17:55.988Z,19.20
2019-05-07T11:20:24.537Z,18.40
2019-05-07T11:22:53.109Z,18.90
2019-05-07T11:25:22.549Z,19.60
2019-05-07T11:27:52.414Z,19.60
2019-05-07T11:30:22.783Z,20.30
2019-05-07T11:32:52.225Z,19.80
2019-05-07T11:35:23.056Z,19.10
2019-05-07T11:37:52.324Z,18.40
2019-05-07T11:40:22.687Z,18.30
2019-05-07T11:43:02.463Z,18.50
2019-05-07T11:45:44.843Z,18.70
2019-05-07T11:48:13.450Z,18.80
2019-05-07T11:50:43.643Z,18.00
2019-05-07T11:53:21.975Z,17.00
2019-05-07T11:55:52.233Z,16.90
2019-05-07T11:58:21.972Z,16.50
2019-05-07T12:01:03.669Z,17.00
2019-05-07T12:03:32.532Z,16.70
2019-05-07T12:06:02.083Z,16.40
2019-05-07T12:08:43.064Z,16.40
2019-05-07T12:11:02.335Z,15.60
2019-05-07T12:13:32.313Z,15.80
2019-05-07T12:16:02.982Z,16.10
2019-05-07T12:18:32.095Z,15.60
2019-05-07T12:21:03.738Z,15.70
2019-05-07T12:23:33.032Z,15.10
2019-05-07T12:26:02.263Z,15.40
2019-05-07T12:28:32.813Z,15.40
2019-05-07T12:31:17.941Z,15.40
2019-05-07T12:34:04.328Z,14.80
2019-05-07T12:36:33.123Z,15.70
2019-05-07T12:39:02.598Z,15.40
2019-05-07T12:41:33.930Z,15.20
2019-05-07T12:44:04.788Z,14.70
2019-05-07T12:46:33.598Z,14.70
2019-05-07T12:49:03.069Z,14.80
2019-05-07T12:51:37.482Z,15.80
2019-05-07T12:54:05.364Z,15.50
2019-05-07T12:56:34.029Z,16.70
2019-05-07T12:59:02.895Z,16.70
2019-05-07T13:01:42.245Z,16.30
2019-05-07T13:04:18.239Z,15.50
2019-05-07T13:06:48.432Z,16.00
2019-05-07T13:09:16.985Z,15.60
2019-05-07T13:11:45.548Z,16.90
2019-05-07T13:14:14.236Z,15.30
2019-05-07T13:16:42.868Z,15.00
2019-05-07T13:19:13.212Z,15.10
2019-05-07T13:21:49.187Z,14.70
2019-05-07T13:24:14.750Z,15.50
2019-05-07T13:26:42.750Z,14.90
2019-05-07T13:29:12.806Z,14.40
2019-05-07T13:31:41.856Z,14.40
2019-05-07T13:34:12.120Z,14.00
2019-05-07T13:36:42.161Z,13.50
2019-05-07T13:39:32.551Z,13.50
2019-05-07T13:42:18.819Z,14.30
2019-05-07T13:44:48.923Z,13.50
2019-05-07T13:47:28.106Z,13.80
2019-05-07T13:49:56.719Z,13.70
2019-05-07T13:52:25.266Z,13.90
2019-05-07T13:54:54.086Z,13.30
2019-05-07T13:57:22.841Z,12.90
2019-05-07T13:59:53.033Z,13.60
2019-05-07T14:02:26.089Z,14.60
2019-05-07T14:04:54.607Z,15.10
2019-05-07T14:07:23.956Z,15.50
2019-05-07T14:09:52.809Z,15.90
2019-05-07T14:12:22.985Z,16.80
2019-05-07T14:14:53.016Z,16.40
2019-05-07T14:17:22.138Z,16.90
2019-05-07T14:19:52.842Z,15.70
2019-05-07T14:22:22.612Z,15.00
2019-05-07T14:24:53.089Z,14.60
2019-05-07T14:27:21.544Z,14.40
2019-05-07T14:29:52.026Z,13.70
2019-05-07T14:32:24.829Z,13.90
2019-05-07T14:35:04.099Z,13.90
2019-05-07T14:37:46.285Z,14.30
2019-05-07T14:40:19.527Z,15.00
2019-05-07T14:43:03.579Z,15.40
2019-05-07T14:45:32.677Z,15.00
2019-05-07T14:48:02.927Z,15.80
2019-05-07T14:50:33.039Z,16.20
2019-05-07T14:53:02.723Z,16.60
2019-05-07T14:55:32.428Z,16.40
2019-05-07T14:58:01.885Z,16.10
2019-05-07T15:00:30.542Z,16.00
2019-05-07T15:02:59.029Z,15.70
2019-05-07T15:05:27.507Z,15.80
2019-05-07T15:08:07.360Z,16.80
2019-05-07T15:10:26.267Z,17.10
2019-05-07T15:12:54.748Z,16.40
2019-05-07T15:15:23.280Z,15.90
2019-05-07T15:17:53.413Z,15.90
2019-05-07T15:20:22.554Z,14.80
2019-05-07T15:23:02.717Z,15.10
2019-05-07T15:25:32.006Z,15.70
2019-05-07T15:28:01.808Z,15.90
2019-05-07T15:30:32.436Z,15.20
2019-05-07T15:33:02.280Z,15.30
2019-05-07T15:35:31.999Z,14.40
2019-05-07T15:38:02.431Z,15.10
2019-05-07T15:40:33.002Z,14.10
2019-05-07T15:43:02.305Z,14.30
2019-05-07T15:45:30.949Z,14.00
2019-05-07T15:47:59.642Z,13.70
2019-05-07T15:50:32.231Z,14.00
2019-05-07T15:53:05.481Z,14.50
2019-05-07T15:55:34.108Z,14.80
2019-05-07T15:58:02.852Z,14.20
2019-05-07T16:00:33.559Z,14.70
2019-05-07T16:03:13.148Z,14.10
2019-05-07T16:05:42.470Z,14.80
2019-05-07T16:08:13.076Z,14.00
2019-05-07T16:10:42.646Z,13.70
2019-05-07T16:13:13.708Z,13.30
2019-05-07T16:15:42.523Z,13.80
2019-05-07T16:18:23.795Z,13.60
2019-05-07T16:20:52.299Z,13.20
2019-05-07T16:23:22.055Z,12.20
2019-05-07T16:25:52.669Z,11.90
2019-05-07T16:28:21.902Z,12.60
2019-05-07T16:30:52.180Z,12.90
2019-05-07T16:33:20.799Z,13.20
2019-05-07T16:35:49.350Z,13.10
2019-05-07T16:38:18.194Z,12.20
2019-05-07T16:40:47.949Z,10.90
2019-05-07T16:43:16.506Z,10.30
2019-05-07T16:45:45.090Z,10.90
2019-05-07T16:48:13.784Z,10.80
2019-05-07T16:50:45.382Z,11.60
2019-05-07T16:53:26.468Z,11.90
2019-05-07T16:55:44.103Z,12.10
2019-05-07T16:58:14.316Z,12.30
2019-05-07T17:00:47.676Z,13.00
2019-05-07T17:03:17.812Z,13.90
2019-05-07T17:05:46.394Z,13.80
2019-05-07T17:08:16.586Z,14.10
2019-05-07T17:10:45.627Z,14.00
2019-05-07T17:13:14.141Z,14.10
2019-05-07T17:15:56.494Z,13.90
2019-05-07T17:18:26.061Z,14.60
2019-05-07T17:20:55.348Z,14.30
2019-05-07T17:23:23.956Z,14.30
2019-05-07T17:25:52.711Z,14.60
2019-05-07T17:28:22.916Z,14.60
2019-05-07T17:30:52.438Z,14.50
2019-05-07T17:33:23.054Z,14.40
2019-05-07T17:35:51.897Z,14.00
2019-05-07T17:38:22.854Z,14.20
2019-05-07T17:40:52.131Z,13.90
2019-05-07T17:43:21.990Z,13.70
2019-05-07T17:45:52.247Z,13.60
2019-05-07T17:48:23.055Z,13.70
2019-05-07T17:51:08.203Z,13.60
2019-05-07T17:53:37.255Z,13.70
2019-05-07T17:56:05.898Z,14.00
2019-05-07T17:58:34.624Z,13.70
2019-05-07T18:01:04.491Z,13.30
2019-05-07T18:03:34.438Z,13.50
2019-05-07T18:06:03.063Z,13.70
2019-05-07T18:08:32.543Z,14.00
2019-05-07T18:11:02.330Z,14.20
2019-05-07T18:13:32.280Z,14.00
2019-05-07T18:16:03.118Z,13.80
2019-05-07T18:18:32.708Z,13.40
2019-05-07T18:21:02.277Z,13.80
2019-05-07T18:23:32.068Z,13.50
2019-05-07T18:26:01.071Z,13.20
2019-05-07T18:28:29.729Z,13.90
2019-05-07T18:30:58.732Z,15.90
2019-05-07T18:33:34.837Z,16.70
2019-05-07T18:36:03.538Z,16.90
2019-05-07T18:38:32.957Z,17.10
2019-05-07T18:41:02.936Z,17.30
2019-05-07T18:43:33.162Z,17.80
2019-05-07T18:46:02.399Z,18.60
2019-05-07T18:48:31.019Z,18.40
2019-05-07T18:50:59.666Z,18.40
2019-05-07T18:53:28.381Z,18.50
2019-05-07T18:55:57.493Z,17.90
2019-05-07T18:58:26.141Z,19.10
2019-05-07T19:00:56.395Z,19.30
2019-05-07T19:03:25.430Z,20.10
2019-05-07T19:05:54.653Z,20.30
2019-05-07T19:08:23.332Z,19.70
2019-05-07T19:10:52.259Z,19.60
2019-05-07T19:13:22.220Z,19.70
2019-05-07T19:15:52.711Z,19.40
2019-05-07T19:18:22.768Z,19.70
2019-05-07T19:20:52.952Z,20.30
2019-05-07T19:23:22.512Z,19.50
2019-05-07T19:25:52.452Z,20.20
2019-05-07T19:28:22.453Z,20.10
2019-05-07T19:30:54.142Z,20.30
2019-05-07T19:33:27.011Z,20.30
2019-05-07T19:35:54.974Z,21.10
2019-05-07T19:38:24.295Z,20.50
2019-05-07T19:40:53.285Z,20.70
2019-05-07T19:43:23.437Z,21.00
2019-05-07T19:45:52.519Z,21.00
2019-05-07T19:48:23.159Z,21.50
2019-05-07T19:50:52.800Z,21.00
2019-05-07T19:53:23.489Z,21.10
2019-05-07T19:56:08.956Z,20.40
2019-05-07T19:58:38.194Z,20.50
2019-05-07T20:01:08.652Z,20.50
2019-05-07T20:03:37.810Z,20.70
2019-05-07T20:06:06.842Z,21.30
2019-05-07T20:08:36.745Z,20.80
2019-05-07T20:11:16.289Z,20.80
2019-05-07T20:13:46.133Z,20.70
2019-05-07T20:16:16.493Z,20.50
2019-05-07T20:18:48.123Z,20.70
2019-05-07T20:21:22.911Z,20.70
2019-05-07T20:23:52.695Z,20.80
2019-05-07T20:26:23.430Z,20.70
2019-05-07T20:28:52.834Z,21.00
2019-05-07T20:31:22.774Z,21.20
2019-05-07T20:33:53.111Z,21.30
2019-05-07T20:36:22.227Z,21.50
2019-05-07T20:38:52.140Z,21.20
2019-05-07T20:41:23.087Z,21.60
2019-05-07T20:43:52.637Z,21.40
2019-05-07T20:46:23.370Z,21.00
2019-05-07T20:48:53.512Z,21.50
2019-05-07T20:51:23.107Z,21.40
2019-05-07T20:53:56.736Z,21.10
2019-05-07T20:56:27.140Z,21.00
2019-05-07T20:58:55.733Z,21.10
2019-05-07T21:01:24.633Z,21.30
2019-05-07T21:03:53.419Z,21.20
2019-05-07T21:06:22.569Z,21.20
2019-05-07T21:08:51.365Z,21.10
2019-05-07T21:11:19.979Z,21.30
2019-05-07T21:13:48.804Z,21.30
2019-05-07T21:16:17.510Z,21.40
2019-05-07T21:18:45.994Z,21.20
2019-05-07T21:21:14.632Z,21.30
2019-05-07T21:23:43.575Z,21.20
2019-05-07T21:26:13.053Z,21.30
2019-05-07T21:28:43.176Z,21.10
2019-05-07T21:31:12.089Z,21.10
2019-05-07T21:33:42.739Z,21.20
2019-05-07T21:36:12.179Z,21.50
2019-05-07T21:38:42.551Z,21.60
2019-05-07T21:41:12.872Z,22.00
2019-05-07T21:43:43.084Z,22.10
2019-05-07T21:46:13.410Z,22.40
2019-05-07T21:48:41.915Z,22.70
2019-05-07T21:51:12.190Z,22.90
2019-05-07T21:53:48.314Z,23.00
2019-05-07T21:56:27.336Z,23.10
2019-05-07T21:58:57.515Z,23.40
2019-05-07T22:01:33.638Z,23.60
2019-05-07T22:04:02.272Z,23.60
2019-05-07T22:06:30.833Z,23.70
2019-05-07T22:08:59.227Z,23.60
2019-05-07T22:11:27.769Z,23.70
2019-05-07T22:13:56.198Z,23.70
2019-05-07T22:16:24.676Z,23.70
2019-05-07T22:18:53.224Z,23.90
2019-05-07T22:21:21.718Z,24.40
2019-05-07T22:23:52.233Z,24.30
2019-05-07T22:26:25.556Z,24.40
2019-05-07T22:28:53.789Z,24.60
2019-05-07T22:31:31.345Z,25.00
2019-05-07T22:34:02.121Z,24.80
2019-05-07T22:36:32.710Z,25.00
2019-05-07T22:39:01.948Z,24.90
2019-05-07T22:41:31.839Z,25.30
2019-05-07T22:44:02.417Z,25.40
2019-05-07T22:46:32.670Z,25.30
2019-05-07T22:49:03.116Z,25.30
2019-05-07T22:51:31.722Z,25.10
2019-05-07T22:54:04.107Z,25.20
2019-05-07T22:56:48.550Z,25.10
2019-05-07T22:59:17.013Z,25.10
2019-05-07T23:01:45.565Z,24.90
2019-05-07T23:04:14.053Z,25.10
2019-05-07T23:06:43.694Z,25.00
2019-05-07T23:09:12.820Z,25.10
2019-05-07T23:11:41.347Z,25.20
2019-05-07T23:14:11.799Z,25.30
2019-05-07T23:16:40.018Z,25.50
2019-05-07T23:19:08.430Z,25.70
2019-05-07T23:21:36.975Z,25.90
2019-05-07T23:24:05.465Z,25.80
2019-05-07T23:26:47.204Z,25.70
2019-05-07T23:29:04.224Z,25.70
2019-05-07T23:31:32.711Z,25.70
2019-05-07T23:34:01.888Z,25.50
2019-05-07T23:36:30.634Z,25.70
2019-05-07T23:38:59.045Z,25.70
2019-05-07T23:41:32.999Z,25.50
2019-05-07T23:44:12.462Z,25.60
2019-05-07T23:46:42.598Z,25.60
2019-05-07T23:49:12.604Z,25.60
2019-05-07T23:51:42.162Z,25.60
2019-05-07T23:54:12.128Z,25.70
2019-05-07T23:56:42.733Z,25.70
2019-05-07T23:59:14.502Z,25.80
